Time;durP1;ratioP1;P1;durP2;ratioP2;P2;SDS_P1;SDS_P2;PMS_P1;PMS_P2;Temp;Humidity;BMP_temperature;BMP_pressure;BME280_temperature;BME280_humidity;BME280_pressure;Samples;Min_cycle;Max_cycle;Signal;HPM_P1;HPM_P2
2022/09/09 00:02:04;;;;;;;4.68;2.60;;;;;;;13.23;100.00;100593.50;4972079;28;20105;-90
2022/09/09 00:04:29;;;;;;;4.95;2.63;;;;;;;13.19;100.00;100595.50;4972632;28;20503;-91
2022/09/09 00:07:16;;;;;;;3.80;2.58;;;;;;;13.14;100.00;100593.13;4974824;28;20038;-91
2022/09/09 00:09:58;;;;;;;2.90;2.38;;;;;;;13.11;100.00;100587.13;4951907;28;20106;-89
2022/09/09 00:12:29;;;;;;;4.10;2.40;;;;;;;13.11;100.00;100593.31;4972918;28;20384;-88
2022/09/09 00:15:00;;;;;;;5.57;2.25;;;;;;;13.09;100.00;100583.69;4950865;28;20027;-90
2022/09/09 00:17:49;;;;;;;3.55;2.28;;;;;;;13.10;100.00;100585.41;4972427;28;20031;-90
2022/09/09 00:20:33;;;;;;;3.40;2.17;;;;;;;13.05;100.00;100580.38;4972146;28;20077;-89
2022/09/09 00:23:25;;;;;;;4.82;2.30;;;;;;;13.04;100.00;100569.75;4970101;28;20035;-90
2022/09/09 00:26:02;;;;;;;2.90;2.00;;;;;;;13.03;100.00;100576.06;4969296;28;20033;-89
2022/09/09 00:28:32;;;;;;;4.43;2.38;;;;;;;13.01;100.00;100569.97;4953551;28;20356;-91
2022/09/09 00:31:07;;;;;;;2.30;2.00;;;;;;;12.99;100.00;100577.22;4961044;28;20107;-91
2022/09/09 00:33:33;;;;;;;2.45;1.73;;;;;;;12.93;100.00;100573.16;4965951;28;20026;-90
2022/09/09 00:36:00;;;;;;;3.58;2.13;;;;;;;12.90;100.00;100568.84;4963375;28;20028;-90
2022/09/09 00:38:36;;;;;;;4.63;2.22;;;;;;;12.94;100.00;100577.53;4959430;28;20066;-91
2022/09/09 00:41:07;;;;;;;4.20;2.15;;;;;;;12.95;100.00;100571.22;4970081;28;20053;-90
2022/09/09 00:43:36;;;;;;;4.82;2.03;;;;;;;12.90;100.00;100571.53;4968308;28;20030;-90
2022/09/09 00:46:20;;;;;;;3.35;1.85;;;;;;;12.88;100.00;100565.44;4950874;28;20038;-90
2022/09/09 00:49:09;;;;;;;3.53;2.00;;;;;;;12.86;100.00;100562.00;4968228;28;20042;-89
2022/09/09 00:51:53;;;;;;;2.83;1.98;;;;;;;12.86;100.00;100561.13;4970359;28;20038;-89
2022/09/09 00:54:35;;;;;;;2.30;1.90;;;;;;;12.83;100.00;100562.22;4970974;28;20042;-88
2022/09/09 00:57:13;;;;;;;3.35;2.10;;;;;;;12.82;100.00;100563.16;4969479;28;20038;-89
2022/09/09 00:59:52;;;;;;;3.55;1.92;;;;;;;12.81;100.00;100563.25;4971359;28;20042;-90
2022/09/09 01:02:28;;;;;;;2.90;1.90;;;;;;;12.77;100.00;100556.41;4973462;28;20038;-92
2022/09/09 01:04:54;;;;;;;4.13;1.70;;;;;;;12.77;100.00;100554.56;4973724;28;20019;-89
2022/09/09 01:07:20;;;;;;;2.83;1.90;;;;;;;12.78;100.00;100558.97;4972967;28;20492;-91
2022/09/09 01:09:54;;;;;;;4.28;2.10;;;;;;;12.74;100.00;100561.94;4971591;28;20428;-90
2022/09/09 01:12:41;;;;;;;2.63;1.90;;;;;;;12.79;100.00;100559.81;4976095;28;20775;-90
2022/09/09 01:15:16;;;;;;;3.55;1.70;;;;;;;12.76;100.00;100560.88;4970132;28;20037;-89
2022/09/09 01:17:44;;;;;;;2.78;1.80;;;;;;;12.76;100.00;100563.56;4972563;28;20030;-90
2022/09/09 01:20:25;;;;;;;5.22;2.00;;;;;;;12.74;100.00;100556.59;4969497;28;20035;-89
2022/09/09 01:23:23;;;;;;;3.15;1.70;;;;;;;12.76;100.00;100563.56;4973390;28;20030;-89
2022/09/09 01:26:15;;;;;;;6.10;2.63;;;;;;;12.72;100.00;100559.38;4950267;28;20074;-89
2022/09/09 01:28:45;;;;;;;3.28;2.17;;;;;;;12.75;100.00;100553.84;4973289;28;20183;-90
2022/09/09 01:31:17;;;;;;;3.28;2.00;;;;;;;12.71;100.00;100553.16;4968388;28;20042;-91
2022/09/09 01:33:42;;;;;;;4.18;2.30;;;;;;;12.72;100.00;100548.69;4967014;28;20087;-90
2022/09/09 01:36:14;;;;;;;4.50;2.28;;;;;;;12.68;100.00;100539.16;4973986;28;20117;-90
2022/09/09 01:38:40;;;;;;;3.22;2.25;;;;;;;12.72;100.00;100540.69;4968788;28;20037;-89
2022/09/09 01:41:05;;;;;;;4.55;2.53;;;;;;;12.67;100.00;100537.44;4973008;28;20026;-88
2022/09/09 01:43:31;;;;;;;5.47;2.40;;;;;;;12.70;100.00;100539.91;4969441;28;20023;-89
2022/09/09 01:46:00;;;;;;;4.63;2.38;;;;;;;12.69;100.00;100543.53;4950139;28;20121;-89
2022/09/09 01:48:27;;;;;;;3.95;2.50;;;;;;;12.62;100.00;100526.19;4971111;28;20113;-90
2022/09/09 01:50:52;;;;;;;5.05;2.60;;;;;;;12.68;100.00;100536.47;4976382;28;20046;-90
2022/09/09 01:53:20;;;;;;;3.60;2.13;;;;;;;12.64;100.00;100529.63;4969300;28;20042;-90
2022/09/09 01:56:22;;;;;;;4.65;2.38;;;;;;;12.60;100.00;100528.13;4971990;28;20050;-90
2022/09/09 01:59:02;;;;;;;5.72;2.30;;;;;;;12.66;100.00;100527.69;4970925;28;20015;-89
2022/09/09 02:01:52;;;;;;;4.13;2.22;;;;;;;12.66;100.00;100530.38;4972853;28;20045;-91
2022/09/09 02:04:46;;;;;;;9.18;2.92;;;;;;;12.65;100.00;100540.19;4974053;28;20504;-90
2022/09/09 02:07:23;;;;;;;6.43;2.95;;;;;;;12.66;100.00;100533.91;4966455;28;20094;-89
2022/09/09 02:09:57;;;;;;;9.15;3.17;;;;;;;12.66;100.00;100528.56;4972724;28;20031;-89
2022/09/09 02:12:25;;;;;;;5.72;3.13;;;;;;;12.69;100.00;100532.84;4971205;28;20042;-89
2022/09/09 02:14:56;;;;;;;6.85;3.17;;;;;;;12.69;100.00;100524.84;4956366;28;20023;-90
2022/09/09 02:17:31;;;;;;;4.70;2.80;;;;;;;12.62;100.00;100519.06;4972662;28;20069;-89
2022/09/09 02:20:04;;;;;;;6.35;2.70;;;;;;;12.66;100.00;100514.34;4951757;28;20038;-90
2022/09/09 02:22:34;;;;;;;5.75;2.47;;;;;;;12.70;100.00;100526.53;4974199;28;20119;-90
2022/09/09 02:25:00;;;;;;;4.80;2.90;;;;;;;12.71;100.00;100517.59;4973714;28;20103;-90
2022/09/09 02:27:25;;;;;;;7.65;3.78;;;;;;;12.69;100.00;100517.69;4974773;28;20483;-90
2022/09/09 02:29:52;;;;;;;4.18;2.90;;;;;;;12.71;100.00;100522.94;4971903;28;20206;-90
2022/09/09 02:32:22;;;;;;;7.53;2.90;;;;;;;12.72;100.00;100516.63;4974147;28;20034;-89
2022/09/09 02:34:53;;;;;;;3.38;2.70;;;;;;;12.73;100.00;100520.16;4967878;28;20082;-88
2022/09/09 02:37:23;;;;;;;5.70;2.80;;;;;;;12.72;100.00;100511.31;4972757;28;20057;-89
2022/09/09 02:39:48;;;;;;;5.00;2.90;;;;;;;12.68;100.00;100507.13;4967478;28;20378;-90
2022/09/09 02:42:14;;;;;;;6.40;2.88;;;;;;;12.74;100.00;100517.38;4974574;28;20031;-89
2022/09/09 02:44:41;;;;;;;4.20;2.55;;;;;;;12.73;100.00;100517.50;4990211;28;20026;-90
2022/09/09 02:47:24;;;;;;;4.97;2.13;;;;;;;12.73;100.00;100523.69;4991808;28;20046;-90
2022/09/09 02:50:19;;;;;;;2.97;2.38;;;;;;;12.70;100.00;100507.84;4984108;28;20025;-90
2022/09/09 02:53:05;;;;;;;5.18;2.38;;;;;;;12.72;100.00;100519.31;4987000;28;20111;-90
2022/09/09 02:56:09;;;;;;;4.38;2.03;;;;;;;12.67;100.00;100505.41;4988854;28;20034;-88
2022/09/09 02:58:36;;;;;;;4.33;2.00;;;;;;;12.67;100.00;100503.59;4988191;28;20087;-91
2022/09/09 03:01:02;;;;;;;4.88;2.22;;;;;;;12.75;100.00;100516.44;4991187;28;20214;-90
2022/09/09 03:03:28;;;;;;;4.15;2.05;;;;;;;12.74;100.00;100509.38;4988585;28;20034;-90
2022/09/09 03:05:54;;;;;;;4.07;2.10;;;;;;;12.81;100.00;100521.38;4977576;28;20057;-91
2022/09/09 03:08:19;;;;;;;6.82;2.40;;;;;;;12.82;100.00;100512.41;4973430;28;20047;-91
2022/09/09 03:10:45;;;;;;;3.00;2.15;;;;;;;12.88;100.00;100516.50;4978005;28;20030;-91
2022/09/09 03:13:12;;;;;;;4.88;2.35;;;;;;;12.87;100.00;100510.28;4976946;28;20443;-90
2022/09/09 03:15:37;;;;;;;6.53;2.30;;;;;;;12.93;100.00;100517.06;4983142;28;20065;-90
2022/09/09 03:18:03;;;;;;;5.38;2.33;;;;;;;12.96;100.00;100516.84;4991652;28;20027;-91
2022/09/09 03:20:29;;;;;;;3.80;2.13;;;;;;;12.98;100.00;100522.09;4986662;28;20062;-90
2022/09/09 03:22:55;;;;;;;4.85;2.40;;;;;;;12.98;100.00;100527.44;4985512;28;20041;-92
2022/09/09 03:25:25;;;;;;;4.53;2.13;;;;;;;12.98;100.00;100530.09;4993086;28;20026;-89
2022/09/09 03:27:54;;;;;;;6.82;3.10;;;;;;;13.00;100.00;100533.50;4974237;28;20504;-90
2022/09/09 03:30:20;;;;;;;6.70;2.70;;;;;;;13.00;100.00;100525.50;4973074;28;20023;-90
2022/09/09 03:32:45;;;;;;;9.98;3.03;;;;;;;12.97;100.00;100523.91;4972157;28;20104;-90
2022/09/09 03:35:10;;;;;;;5.47;2.80;;;;;;;13.01;100.00;100528.09;4956310;28;20030;-91
2022/09/09 03:37:36;;;;;;;7.22;2.60;;;;;;;13.00;100.00;100534.41;4970000;28;20057;-89
2022/09/09 03:40:01;;;;;;;5.38;2.58;;;;;;;13.03;100.00;100541.34;4969474;28;20169;-88
2022/09/09 03:42:27;;;;;;;6.28;2.60;;;;;;;13.02;100.00;100529.78;4970990;28;20025;-89
2022/09/09 03:44:52;;;;;;;6.10;2.75;;;;;;;13.03;100.00;100536.00;4971160;28;20027;-93
2022/09/09 03:47:19;;;;;;;7.22;2.97;;;;;;;13.07;100.00;100534.84;4966925;28;20023;-90
2022/09/09 03:49:45;;;;;;;4.88;2.63;;;;;;;13.04;100.00;100524.34;4950674;28;20034;-90
2022/09/09 03:52:11;;;;;;;3.60;2.50;;;;;;;13.06;100.00;100535.78;4968704;28;20031;-90
2022/09/09 03:54:36;;;;;;;7.85;2.88;;;;;;;13.12;100.00;100535.38;4964668;28;20027;-90
2022/09/09 03:57:02;;;;;;;6.43;2.88;;;;;;;13.11;100.00;100528.31;4966481;28;20518;-91
2022/09/09 03:59:27;;;;;;;7.20;3.03;;;;;;;13.16;100.00;100531.53;4965393;28;20026;-89
2022/09/09 04:01:53;;;;;;;8.02;3.38;;;;;;;13.15;100.00;100528.03;4964363;28;20034;-90
2022/09/09 04:04:19;;;;;;;12.05;3.38;;;;;;;13.17;100.00;100533.28;4944794;28;20026;-89
2022/09/09 04:06:45;;;;;;;7.20;2.72;;;;;;;13.15;100.00;100532.50;4966560;28;20047;-90
2022/09/09 04:09:11;;;;;;;9.35;3.35;;;;;;;13.12;100.00;100527.38;4971618;28;20027;-90
2022/09/09 04:11:37;;;;;;;9.73;3.50;;;;;;;13.11;100.00;100534.53;4969214;28;20053;-89
2022/09/09 04:14:02;;;;;;;6.25;2.92;;;;;;;13.10;100.00;100523.94;4973169;28;20030;-91
2022/09/09 04:16:28;;;;;;;7.30;3.08;;;;;;;13.10;100.00;100523.94;4971038;28;20031;-90
2022/09/09 04:18:53;;;;;;;4.82;2.50;;;;;;;13.10;100.00;100521.28;4970864;28;20023;-90
2022/09/09 04:21:18;;;;;;;9.82;2.60;;;;;;;13.07;100.00;100511.63;4971721;28;20045;-89
2022/09/09 04:23:44;;;;;;;11.38;3.13;;;;;;;13.05;100.00;100515.38;4971136;28;20105;-90
2022/09/09 04:26:09;;;;;;;7.93;2.70;;;;;;;13.04;100.00;100509.19;4972137;28;20038;-90
2022/09/09 04:28:36;;;;;;;8.73;2.95;;;;;;;13.10;100.00;100513.25;4971438;28;20035;-91
2022/09/09 04:31:19;;;;;;;8.38;3.20;;;;;;;13.13;100.00;100515.75;4951516;28;20035;-91
2022/09/09 04:33:46;;;;;;;6.63;3.22;;;;;;;13.16;100.00;100503.00;4973495;28;20027;-90
2022/09/09 04:36:12;;;;;;;10.30;3.00;;;;;;;13.25;100.00;100503.38;4973447;28;20059;-89
2022/09/09 04:38:37;;;;;;;6.97;3.08;;;;;;;13.25;100.00;100498.91;4972141;28;20042;-90
2022/09/09 04:41:03;;;;;;;7.53;2.85;;;;;;;13.30;100.00;100495.94;4974803;28;20050;-92
2022/09/09 04:43:30;;;;;;;6.75;2.88;;;;;;;13.29;100.00;100507.56;4973928;28;20653;-91
2022/09/09 04:45:56;;;;;;;6.28;2.95;;;;;;;13.20;100.00;100496.50;4974006;28;20081;-90
2022/09/09 04:48:21;;;;;;;11.30;3.72;;;;;;;13.15;100.00;100495.94;4975271;28;20118;-90
2022/09/09 04:51:04;;;;;;;5.70;2.78;;;;;;;13.12;100.00;100503.31;4975017;28;20042;-90
2022/09/09 04:53:30;;;;;;;6.25;3.17;;;;;;;13.01;100.00;100488.00;4974204;28;20530;-90
2022/09/09 04:56:06;;;;;;;7.38;2.92;;;;;;;13.08;100.00;100491.97;4974291;28;20023;-91
2022/09/09 04:58:32;;;;;;;7.32;3.20;;;;;;;13.10;100.00;100499.91;4972874;28;20039;-90
2022/09/09 05:01:12;;;;;;;9.30;3.15;;;;;;;13.12;100.00;100495.28;4967342;28;20640;-91
2022/09/09 05:03:37;;;;;;;4.47;2.60;;;;;;;13.14;100.00;100494.25;4973916;28;20380;-88
2022/09/09 05:06:09;;;;;;;9.85;3.00;;;;;;;13.13;100.00;100489.03;4971583;28;20046;-90
2022/09/09 05:08:36;;;;;;;7.38;3.05;;;;;;;13.10;100.00;100492.75;4953448;28;20027;-89
2022/09/09 05:11:01;;;;;;;7.07;2.97;;;;;;;13.06;100.00;100493.91;4974361;28;20237;-90
2022/09/09 05:13:27;;;;;;;6.63;3.05;;;;;;;12.99;100.00;100489.06;4973677;28;20042;-89
2022/09/09 05:15:54;;;;;;;7.28;2.78;;;;;;;13.02;100.00;100491.53;4972861;28;20117;-90
2022/09/09 05:18:19;;;;;;;7.38;3.13;;;;;;;12.99;100.00;100497.94;4982287;28;20035;-93
2022/09/09 05:20:44;;;;;;;6.38;3.15;;;;;;;12.99;100.00;100495.25;4990178;28;20058;-92
2022/09/09 05:23:13;;;;;;;8.90;3.40;;;;;;;12.98;100.00;100495.38;4987995;28;20019;-92
2022/09/09 05:25:39;;;;;;;7.47;3.10;;;;;;;12.95;100.00;100489.25;4992401;28;20062;-90
2022/09/09 05:28:06;;;;;;;8.75;3.20;;;;;;;12.98;100.00;100490.03;4984883;28;20073;-92
2022/09/09 05:30:31;;;;;;;10.43;3.80;;;;;;;12.95;100.00;100491.06;4979839;28;20023;-91
2022/09/09 05:32:56;;;;;;;11.07;3.33;;;;;;;12.98;100.00;100488.22;4983298;28;20030;-91
2022/09/09 05:35:22;;;;;;;10.10;3.65;;;;;;;12.95;100.00;100480.38;4983674;28;20105;-90
2022/09/09 05:37:48;;;;;;;13.05;3.60;;;;;;;12.96;100.00;100487.47;4980603;28;20054;-91
2022/09/09 05:40:14;;;;;;;6.53;2.95;;;;;;;13.03;100.00;100493.25;4984694;28;20026;-90
2022/09/09 05:42:40;;;;;;;6.30;2.95;;;;;;;13.02;100.00;100492.38;4981896;28;20202;-89
2022/09/09 05:45:07;;;;;;;5.75;3.20;;;;;;;13.03;100.00;100493.25;4981876;28;20039;-89
2022/09/09 05:47:33;;;;;;;10.57;2.90;;;;;;;13.11;100.00;100501.59;4979534;28;20047;-90
2022/09/09 05:49:58;;;;;;;8.98;3.05;;;;;;;13.09;100.00;100498.19;4983688;28;20102;-92
2022/09/09 05:52:25;;;;;;;9.30;3.22;;;;;;;13.13;100.00;100505.06;4988332;28;20042;-91
2022/09/09 05:54:50;;;;;;;10.43;3.63;;;;;;;13.16;100.00;100510.16;5001518;28;20015;-90
2022/09/09 05:57:16;;;;;;;12.75;4.28;;;;;;;13.20;100.00;100512.53;4986351;28;20037;-91
2022/09/09 05:59:42;;;;;;;10.95;3.75;;;;;;;13.30;100.00;100512.81;4998599;28;20034;-90
2022/09/09 06:02:09;;;;;;;7.90;3.65;;;;;;;13.39;100.00;100511.34;4982246;28;20035;-90
2022/09/09 06:04:34;;;;;;;6.60;3.13;;;;;;;13.50;100.00;100505.25;4983404;28;20023;-91
2022/09/09 06:07:00;;;;;;;9.05;3.45;;;;;;;13.69;100.00;100517.25;4989854;28;20046;-90
2022/09/09 06:09:25;;;;;;;9.43;3.42;;;;;;;13.86;100.00;100510.72;4984833;28;20068;-90
2022/09/09 06:11:50;;;;;;;10.63;3.10;;;;;;;14.09;100.00;100509.13;4979575;28;20030;-91
2022/09/09 06:14:17;;;;;;;6.55;2.88;;;;;;;14.24;100.00;100509.00;4988780;28;20019;-92
2022/09/09 06:16:43;;;;;;;5.80;2.63;;;;;;;14.38;100.00;100503.50;4986945;28;20046;-90
2022/09/09 06:19:09;;;;;;;8.50;2.83;;;;;;;14.49;100.00;100495.56;4993594;28;20027;-91
2022/09/09 06:21:40;;;;;;;6.57;3.05;;;;;;;14.59;100.00;100495.75;4994176;28;20042;-90
2022/09/09 06:24:07;;;;;;;7.95;2.58;;;;;;;14.73;99.78;100500.97;4992199;28;20143;-89
2022/09/09 06:26:34;;;;;;;9.80;2.72;;;;;;;14.92;99.11;100506.69;4984442;28;20041;-90
2022/09/09 06:29:02;;;;;;;8.77;2.70;;;;;;;15.05;98.44;100495.91;4982115;28;20041;-92
2022/09/09 06:31:33;;;;;;;7.18;2.70;;;;;;;15.27;96.45;100503.19;4992825;28;20102;-89
2022/09/09 06:34:00;;;;;;;11.07;2.60;;;;;;;15.56;96.68;100502.78;4991739;28;20038;-92
2022/09/09 06:36:27;;;;;;;13.48;3.25;;;;;;;15.83;95.46;100503.34;4983906;28;20085;-91
2022/09/09 06:38:53;;;;;;;9.35;3.15;;;;;;;16.07;92.79;100494.34;4980326;28;20022;-89
2022/09/09 06:41:22;;;;;;;8.50;2.75;;;;;;;16.16;91.38;100493.59;4978348;28;20035;-88
2022/09/09 06:43:47;;;;;;;8.82;3.45;;;;;;;16.09;90.55;100495.06;4975908;28;20022;-89
2022/09/09 06:46:14;;;;;;;11.55;2.80;;;;;;;16.11;90.27;100501.16;4950854;28;20476;-93
2022/09/09 06:48:41;;;;;;;10.38;3.08;;;;;;;16.12;89.59;100495.66;4981025;28;20476;-92
2022/09/09 06:51:10;;;;;;;8.48;2.38;;;;;;;16.35;89.68;100495.69;4985130;28;20118;-88
2022/09/09 06:53:38;;;;;;;7.78;2.45;;;;;;;16.59;88.29;100503.56;4985267;28;20027;-92
2022/09/09 06:56:34;;;;;;;5.22;2.60;;;;;;;16.74;89.02;100498.81;4987065;28;20098;-90
2022/09/09 06:59:03;;;;;;;9.95;2.50;;;;;;;16.99;85.84;100509.25;4981190;28;20163;-91
2022/09/09 07:01:34;;;;;;;8.00;2.55;;;;;;;17.07;83.90;100503.25;4974749;28;20027;-89
2022/09/09 07:04:00;;;;;;;8.68;2.33;;;;;;;17.28;84.86;100506.81;4973394;28;20381;-90
2022/09/09 07:06:30;;;;;;;5.93;2.85;;;;;;;17.38;82.77;100501.50;4971690;28;20058;-92
2022/09/09 07:08:58;;;;;;;6.03;2.10;;;;;;;17.42;81.33;100503.78;4970455;28;20374;-89
2022/09/09 07:11:27;;;;;;;6.35;2.38;;;;;;;17.64;81.81;100501.97;4955939;28;20061;-91
2022/09/09 07:13:52;;;;;;;9.65;2.60;;;;;;;17.91;80.12;100514.91;4973557;28;20435;-90
2022/09/09 07:16:20;;;;;;;10.10;2.80;;;;;;;18.15;77.82;100503.84;4973148;28;20038;-91
2022/09/09 07:18:47;;;;;;;7.43;2.20;;;;;;;18.30;77.15;100507.88;4967474;28;20115;-92
2022/09/09 07:21:14;;;;;;;6.30;2.20;;;;;;;18.47;76.61;100506.38;4968834;28;20175;-91
2022/09/09 07:23:40;;;;;;;8.20;2.40;;;;;;;18.63;76.06;100514.78;4973843;28;20086;-91
2022/09/09 07:26:19;;;;;;;4.47;2.20;;;;;;;18.83;75.72;100504.94;4971921;28;20026;-91
2022/09/09 07:28:45;;;;;;;7.25;2.40;;;;;;;19.16;73.49;100494.75;4970417;28;20108;-91
2022/09/09 07:31:18;;;;;;;7.72;1.90;;;;;;;18.98;72.58;100501.81;4972685;28;20027;-90
2022/09/09 07:33:45;;;;;;;5.18;2.20;;;;;;;18.90;74.64;100498.00;4969263;28;20604;-90
2022/09/09 07:36:21;;;;;;;6.72;1.98;;;;;;;18.97;73.16;100500.97;4972409;28;20373;-90
2022/09/09 07:38:58;;;;;;;5.03;1.95;;;;;;;18.75;73.49;100493.13;4968609;28;20039;-91
2022/09/09 07:41:26;;;;;;;3.65;2.22;;;;;;;18.74;73.21;100503.06;4969108;28;20027;-93
2022/09/09 07:43:55;;;;;;;3.58;2.00;;;;;;;18.70;73.20;100500.81;4956442;28;20097;-92
2022/09/09 07:46:22;;;;;;;7.38;1.98;;;;;;;18.32;73.35;100510.44;4965395;28;20077;-90
2022/09/09 07:48:51;;;;;;;4.90;2.28;;;;;;;17.90;74.60;100514.06;4971790;28;20034;-91
2022/09/09 07:51:21;;;;;;;8.20;2.42;;;;;;;17.64;77.55;100521.69;4972879;28;20027;-91
2022/09/09 07:53:47;;;;;;;10.02;2.40;;;;;;;17.41;77.98;100510.16;4968487;28;20087;-92
2022/09/09 07:56:19;;;;;;;6.97;2.42;;;;;;;17.36;78.04;100500.78;4970376;28;20472;-92
2022/09/09 07:58:46;;;;;;;6.85;2.15;;;;;;;17.38;78.29;100510.41;4951929;28;20030;-94
2022/09/09 08:01:18;;;;;;;5.53;1.90;;;;;;;17.54;77.72;100503.75;4971256;28;20041;-92
2022/09/09 08:03:44;;;;;;;7.47;2.35;;;;;;;17.97;75.87;100510.81;4976085;28;20038;-93
2022/09/09 08:06:11;;;;;;;7.82;2.20;;;;;;;18.37;73.79;100503.66;4969630;28;20117;-94
2022/09/09 08:08:38;;;;;;;8.23;2.20;;;;;;;18.64;72.74;100505.72;4971165;28;20026;-92
2022/09/09 08:11:11;;;;;;;7.80;1.90;;;;;;;18.48;72.92;100516.19;4966291;28;20089;-87
2022/09/09 08:13:37;;;;;;;9.57;2.75;;;;;;;18.35;73.15;100504.75;4970681;28;20026;-93
2022/09/09 08:16:11;;;;;;;11.43;2.17;;;;;;;18.18;73.43;100508.94;4968166;28;20035;-93
2022/09/09 08:18:38;;;;;;;6.15;2.30;;;;;;;17.94;73.88;100522.75;4972143;28;20079;-91
2022/09/09 08:21:06;;;;;;;4.80;2.30;;;;;;;18.03;74.26;100513.84;4969916;28;20461;-91
2022/09/09 08:23:32;;;;;;;6.72;2.10;;;;;;;18.31;72.99;100504.22;4970996;28;20031;-91
2022/09/09 08:26:09;;;;;;;8.38;2.63;;;;;;;18.34;71.13;100506.59;4966377;28;20038;-91
2022/09/09 08:28:34;;;;;;;6.80;1.80;;;;;;;18.33;73.38;100513.00;4965335;28;20129;-89
2022/09/09 08:31:14;;;;;;;5.88;1.90;;;;;;;18.51;72.29;100513.19;4968999;28;20393;-89
2022/09/09 08:33:41;;;;;;;9.52;2.20;;;;;;;18.62;71.32;100517.63;4969012;28;20098;-90
2022/09/09 08:36:09;;;;;;;6.93;2.30;;;;;;;18.62;71.80;100523.03;4953718;28;20386;-85
2022/09/09 08:38:35;;;;;;;8.32;2.60;;;;;;;18.57;71.75;100520.75;4968875;28;20107;-89
2022/09/09 08:41:38;;;;;;;6.43;1.92;;;;;;;18.56;72.37;100516.34;4955244;28;20031;-91
2022/09/09 08:44:09;;;;;;;5.65;1.95;;;;;;;18.37;71.02;100519.81;4969857;28;20043;-90
2022/09/09 08:46:47;;;;;;;6.82;1.90;;;;;;;18.13;72.76;100521.97;4972058;28;20295;-90
2022/09/09 08:49:21;;;;;;;8.77;2.30;;;;;;;18.01;74.08;100523.88;4953809;28;20114;-90
2022/09/09 08:51:49;;;;;;;9.25;2.00;;;;;;;18.00;72.29;100526.72;4969443;28;20031;-90
2022/09/09 08:54:15;;;;;;;6.15;2.35;;;;;;;17.97;74.04;100530.53;4970745;28;20093;-91
2022/09/09 08:56:40;;;;;;;6.75;2.00;;;;;;;17.99;73.81;100522.34;4971191;28;20031;-88
2022/09/09 08:59:17;;;;;;;7.53;2.30;;;;;;;17.94;73.69;100527.28;4973322;28;20031;-90
2022/09/09 09:02:11;;;;;;;8.00;2.50;;;;;;;17.87;74.18;100535.03;4972435;28;20034;-90
2022/09/09 09:04:56;;;;;;;7.28;2.17;;;;;;;17.81;73.73;100536.41;4969511;28;20053;-88
2022/09/09 09:07:41;;;;;;;8.82;2.38;;;;;;;17.68;74.40;100541.09;4970342;28;20034;-88
2022/09/09 09:10:21;;;;;;;8.05;2.22;;;;;;;17.54;74.39;100531.50;4972342;28;20484;-88
2022/09/09 09:12:47;;;;;;;8.55;2.05;;;;;;;17.55;75.14;100546.66;4972968;28;20023;-88
2022/09/09 09:15:28;;;;;;;5.85;2.13;;;;;;;17.56;74.12;100547.53;4971961;28;20069;-89
2022/09/09 09:17:53;;;;;;;7.18;2.17;;;;;;;17.59;74.46;100539.19;4967752;28;20042;-89
2022/09/09 09:20:29;;;;;;;8.40;2.35;;;;;;;17.68;73.46;100552.72;4975098;28;20107;-87
2022/09/09 09:22:59;;;;;;;7.65;2.35;;;;;;;17.73;73.33;100546.94;4958428;28;20109;-87
2022/09/09 09:25:34;;;;;;;6.45;2.13;;;;;;;17.71;73.32;100554.28;4965448;28;20071;-88
2022/09/09 09:28:17;;;;;;;8.25;2.05;;;;;;;17.53;74.19;100550.47;4972760;28;20035;-89
2022/09/09 09:30:48;;;;;;;7.85;2.78;;;;;;;17.29;75.02;100546.16;4975901;28;20031;-91
2022/09/09 09:33:40;;;;;;;10.93;2.72;;;;;;;17.31;75.58;100565.75;4973827;28;20431;-89
2022/09/09 09:36:07;;;;;;;5.72;1.90;;;;;;;17.26;74.73;100557.19;4968410;28;20023;-90
2022/09/09 09:38:33;;;;;;;6.85;2.05;;;;;;;17.17;75.65;100556.09;4973308;28;20055;-89
2022/09/09 09:41:00;;;;;;;8.38;2.30;;;;;;;17.24;75.03;100547.53;4978584;28;20015;-89
2022/09/09 09:43:28;;;;;;;5.95;1.75;;;;;;;17.58;74.84;100553.63;4957845;28;20073;-88
2022/09/09 09:45:54;;;;;;;5.75;1.88;;;;;;;18.08;72.65;100543.91;4974172;28;20024;-88
2022/09/09 09:48:19;;;;;;;6.30;1.75;;;;;;;18.62;71.11;100533.81;4967886;28;20067;-88
2022/09/09 09:51:02;;;;;;;9.27;2.35;;;;;;;19.17;69.49;100542.31;4977769;28;20018;-88
2022/09/09 09:53:33;;;;;;;7.40;1.90;;;;;;;19.27;68.48;100537.78;4993174;28;20018;-91
2022/09/09 09:56:02;;;;;;;7.43;1.75;;;;;;;19.12;69.02;100541.88;4992023;28;20070;-90
2022/09/09 09:58:33;;;;;;;8.32;2.38;;;;;;;18.40;74.55;100551.03;4992001;28;20031;-91
2022/09/09 10:00:59;;;;;;;7.85;2.17;;;;;;;17.29;80.15;100542.63;4992364;28;20026;-88
2022/09/09 10:03:30;;;;;;;11.82;2.60;;;;;;;16.52;84.60;100550.72;4990401;28;20042;-90
2022/09/09 10:05:56;;;;;;;10.93;2.30;;;;;;;16.14;85.97;100551.94;4977000;28;20054;-90
2022/09/09 10:08:26;;;;;;;9.63;2.65;;;;;;;15.79;88.95;100543.94;4994913;28;20038;-91
2022/09/09 10:11:24;;;;;;;6.95;2.60;;;;;;;15.64;88.88;100552.22;4986490;28;20070;-88
2022/09/09 10:14:02;;;;;;;7.20;2.67;;;;;;;15.55;91.24;100550.22;4964735;28;20054;-90
2022/09/09 10:16:40;;;;;;;8.00;2.70;;;;;;;15.54;91.48;100553.84;4974853;28;20495;-89
2022/09/09 10:19:29;;;;;;;8.68;2.63;;;;;;;15.53;91.47;100556.66;4980332;28;20035;-91
2022/09/09 10:22:19;;;;;;;4.22;2.70;;;;;;;15.46;92.77;100556.25;4985713;28;20030;-89
2022/09/09 10:25:07;;;;;;;10.70;2.95;;;;;;;15.47;94.49;100565.16;4987962;28;20046;-92
2022/09/09 10:27:46;;;;;;;10.25;3.33;;;;;;;15.32;95.59;100553.78;4976570;28;20035;-90
2022/09/09 10:30:24;;;;;;;9.07;3.50;;;;;;;15.26;95.89;100567.63;4990585;28;20038;-91
2022/09/09 10:33:03;;;;;;;10.38;4.00;;;;;;;15.18;98.45;100568.22;4982127;28;20243;-92
2022/09/09 10:36:01;;;;;;;7.22;4.03;;;;;;;15.05;98.52;100559.34;4966264;28;20031;-92
2022/09/09 10:38:32;;;;;;;11.50;3.45;;;;;;;15.03;99.33;100580.06;4971210;28;20476;-93
2022/09/09 10:41:09;;;;;;;10.60;3.22;;;;;;;14.96;99.99;100571.59;4975786;28;20485;-92
2022/09/09 10:44:04;;;;;;;7.00;3.30;;;;;;;14.93;100.00;100567.34;4969826;28;20098;-92
2022/09/09 10:46:56;;;;;;;7.82;3.05;;;;;;;14.81;100.00;100564.72;4967623;28;20094;-91
2022/09/09 10:49:27;;;;;;;7.53;3.15;;;;;;;14.90;100.00;100582.78;4974844;28;20046;-90
2022/09/09 10:51:55;;;;;;;8.43;3.60;;;;;;;15.02;100.00;100571.16;4973604;28;20122;-94
2022/09/09 10:54:29;;;;;;;5.82;3.15;;;;;;;15.24;100.00;100575.78;4962562;28;20027;-92
2022/09/09 10:57:02;;;;;;;8.07;3.10;;;;;;;15.50;100.00;100565.78;4955670;28;20046;-94
2022/09/09 10:59:35;;;;;;;10.68;3.63;;;;;;;15.72;100.00;100564.16;4958439;28;20374;-92
2022/09/09 11:02:12;;;;;;;9.82;3.33;;;;;;;15.94;100.00;100565.09;4979724;28;20033;-95
2022/09/09 11:05:07;;;;;;;6.93;3.17;;;;;;;16.08;100.00;100571.22;4976115;28;20007;-92
2022/09/09 11:07:53;;;;;;;8.48;3.58;;;;;;;16.06;99.31;100559.75;4968775;28;20061;-95
2022/09/09 11:10:30;;;;;;;8.48;3.35;;;;;;;16.15;100.00;100565.25;4976430;28;20537;-93
2022/09/09 11:13:01;;;;;;;9.02;3.15;;;;;;;16.21;98.84;100566.59;4978670;28;20587;-94
2022/09/09 11:15:44;;;;;;;6.50;3.15;;;;;;;16.57;99.47;100564.66;4978459;28;20027;-95
2022/09/09 11:18:19;;;;;;;5.30;3.28;;;;;;;17.12;98.16;100563.72;4975771;28;20138;-92
2022/09/09 11:20:47;;;;;;;5.97;2.47;;;;;;;17.77;91.59;100561.88;4974310;28;20023;-94
2022/09/09 11:23:17;;;;;;;6.28;2.00;;;;;;;17.98;86.75;100574.50;4958855;28;20034;-93
2022/09/09 11:25:51;;;;;;;4.95;1.85;;;;;;;17.98;88.23;100569.97;4953003;28;20027;-93
2022/09/09 11:28:25;;;;;;;;;;;;;;;17.97;88.53;100576.31;4970012;28;20038;-93
2022/09/09 11:31:11;;;;;;;5.25;2.00;;;;;;;18.99;84.09;100549.41;4969203;28;19925;-93
2022/09/09 11:33:40;;;;;;;5.43;2.28;;;;;;;19.88;81.02;100567.16;4964175;28;20369;-93
2022/09/09 11:36:45;;;;;;;3.15;1.70;;;;;;;19.71;79.40;100557.09;4972472;28;20031;-93
2022/09/09 11:39:35;;;;;;;4.05;1.90;;;;;;;19.01;80.23;100564.44;4948573;29;20081;-96
2022/09/09 11:42:13;;;;;;;4.40;2.05;;;;;;;18.35;83.29;100559.53;4943277;29;20047;-93